sensor_id;sensor_type;location;lat;lon;timestamp;pressure;altitude;pressure_sealevel;temperature;humidity
53390;BME280;39288;42.970;1.524;2024-03-06T00:01:05;96206.06;;;2.55;77.01
53390;BME280;39288;42.970;1.524;2024-03-06T00:02:06;96227.19;;;2.60;77.15
53390;BME280;39288;42.970;1.524;2024-03-06T00:03:07;96218.41;;;2.55;76.87
53390;BME280;39288;42.970;1.524;2024-03-06T00:04:07;96210.28;;;2.28;77.54
53390;BME280;39288;42.970;1.524;2024-03-06T00:05:08;96217.38;;;2.28;78.37
53390;BME280;39288;42.970;1.524;2024-03-06T00:06:08;96214.94;;;2.38;78.01
53390;BME280;39288;42.970;1.524;2024-03-06T00:07:09;96234.19;;;2.55;77.59
53390;BME280;39288;42.970;1.524;2024-03-06T00:08:09;96229.41;;;2.52;77.60
53390;BME280;39288;42.970;1.524;2024-03-06T00:09:10;96219.56;;;2.59;77.55
53390;BME280;39288;42.970;1.524;2024-03-06T00:10:10;96232.78;;;2.64;76.74
53390;BME280;39288;42.970;1.524;2024-03-06T00:11:11;96223.63;;;2.38;78.12
53390;BME280;39288;42.970;1.524;2024-03-06T00:12:11;96221.13;;;2.32;78.53
53390;BME280;39288;42.970;1.524;2024-03-06T00:13:12;96213.44;;;2.42;77.69
53390;BME280;39288;42.970;1.524;2024-03-06T00:14:12;96233.84;;;2.51;77.60
53390;BME280;39288;42.970;1.524;2024-03-06T00:15:12;96213.44;;;2.42;77.52
53390;BME280;39288;42.970;1.524;2024-03-06T00:16:13;96223.47;;;2.45;77.19
53390;BME280;39288;42.970;1.524;2024-03-06T00:17:14;96227.94;;;2.44;77.80
53390;BME280;39288;42.970;1.524;2024-03-06T00:18:14;96232.97;;;2.46;77.40
53390;BME280;39288;42.970;1.524;2024-03-06T00:19:15;96234.44;;;2.42;77.61
53390;BME280;39288;42.970;1.524;2024-03-06T00:20:15;96230.72;;;2.38;77.86
53390;BME280;39288;42.970;1.524;2024-03-06T00:21:16;96221.69;;;2.34;77.82
53390;BME280;39288;42.970;1.524;2024-03-06T00:22:16;96240.94;;;2.51;77.12
53390;BME280;39288;42.970;1.524;2024-03-06T00:23:17;96228.09;;;2.38;77.45
53390;BME280;39288;42.970;1.524;2024-03-06T00:24:17;96238.31;;;2.51;77.50
53390;BME280;39288;42.970;1.524;2024-03-06T00:25:18;96231.09;;;2.58;76.85
53390;BME280;39288;42.970;1.524;2024-03-06T00:26:18;96242.34;;;2.70;76.70
53390;BME280;39288;42.970;1.524;2024-03-06T00:27:18;96236.75;;;2.78;76.19
53390;BME280;39288;42.970;1.524;2024-03-06T00:28:19;96233.63;;;2.81;75.64
53390;BME280;39288;42.970;1.524;2024-03-06T00:29:19;96234.59;;;2.92;76.23
53390;BME280;39288;42.970;1.524;2024-03-06T00:30:20;96233.81;;;2.91;75.84
53390;BME280;39288;42.970;1.524;2024-03-06T00:31:20;96241.03;;;2.84;75.91
53390;BME280;39288;42.970;1.524;2024-03-06T00:32:20;96237.44;;;2.74;75.90
53390;BME280;39288;42.970;1.524;2024-03-06T00:33:23;96238.88;;;2.81;76.14
53390;BME280;39288;42.970;1.524;2024-03-06T00:34:24;96240.72;;;2.81;75.94
53390;BME280;39288;42.970;1.524;2024-03-06T00:35:24;96235.91;;;2.89;76.03
53390;BME280;39288;42.970;1.524;2024-03-06T00:36:24;96230.13;;;2.92;75.37
53390;BME280;39288;42.970;1.524;2024-03-06T00:37:25;96225.50;;;2.83;76.51
53390;BME280;39288;42.970;1.524;2024-03-06T00:38:25;96232.09;;;3.14;74.90
53390;BME280;39288;42.970;1.524;2024-03-06T00:39:25;96226.56;;;2.99;75.52
53390;BME280;39288;42.970;1.524;2024-03-06T00:40:26;96227.75;;;2.91;76.38
53390;BME280;39288;42.970;1.524;2024-03-06T00:41:26;96214.50;;;2.69;76.18
53390;BME280;39288;42.970;1.524;2024-03-06T00:42:27;96227.53;;;2.64;77.39
53390;BME280;39288;42.970;1.524;2024-03-06T00:43:27;96229.31;;;2.75;76.68
53390;BME280;39288;42.970;1.524;2024-03-06T00:44:27;96222.56;;;2.79;76.07
53390;BME280;39288;42.970;1.524;2024-03-06T00:45:28;96225.41;;;2.78;76.50
53390;BME280;39288;42.970;1.524;2024-03-06T00:46:28;96216.34;;;2.85;75.79
53390;BME280;39288;42.970;1.524;2024-03-06T00:47:28;96218.69;;;2.99;75.26
53390;BME280;39288;42.970;1.524;2024-03-06T00:48:29;96220.19;;;2.94;75.54
53390;BME280;39288;42.970;1.524;2024-03-06T00:49:29;96217.38;;;3.01;75.35
53390;BME280;39288;42.970;1.524;2024-03-06T00:50:30;96216.41;;;2.90;75.97
53390;BME280;39288;42.970;1.524;2024-03-06T00:51:30;96211.50;;;2.94;75.75
53390;BME280;39288;42.970;1.524;2024-03-06T00:52:31;96210.06;;;2.86;76.37
53390;BME280;39288;42.970;1.524;2024-03-06T00:53:32;96222.34;;;2.97;76.13
53390;BME280;39288;42.970;1.524;2024-03-06T00:54:33;96220.25;;;3.00;75.56
53390;BME280;39288;42.970;1.524;2024-03-06T00:55:33;96215.78;;;2.83;75.81
53390;BME280;39288;42.970;1.524;2024-03-06T00:56:40;96223.88;;;2.65;76.52
53390;BME280;39288;42.970;1.524;2024-03-06T00:57:40;96219.75;;;2.69;76.11
53390;BME280;39288;42.970;1.524;2024-03-06T00:58:41;96223.88;;;2.65;76.42
53390;BME280;39288;42.970;1.524;2024-03-06T00:59:41;96227.91;;;2.84;75.56
53390;BME280;39288;42.970;1.524;2024-03-06T01:00:41;96224.50;;;3.01;74.87
53390;BME280;39288;42.970;1.524;2024-03-06T01:01:42;96220.06;;;3.18;74.33
53390;BME280;39288;42.970;1.524;2024-03-06T01:02:42;96226.66;;;3.20;74.10
53390;BME280;39288;42.970;1.524;2024-03-06T01:03:43;96234.03;;;3.18;74.62
53390;BME280;39288;42.970;1.524;2024-03-06T01:04:43;96230.31;;;3.03;74.15
53390;BME280;39288;42.970;1.524;2024-03-06T01:05:43;96236.44;;;2.91;74.92
53390;BME280;39288;42.970;1.524;2024-03-06T01:06:44;96233.97;;;3.02;74.42
53390;BME280;39288;42.970;1.524;2024-03-06T01:07:46;96234.28;;;2.88;74.85
53390;BME280;39288;42.970;1.524;2024-03-06T01:08:47;96234.13;;;2.78;75.64
53390;BME280;39288;42.970;1.524;2024-03-06T01:09:47;96235.94;;;2.78;75.98
53390;BME280;39288;42.970;1.524;2024-03-06T01:10:48;96231.81;;;2.42;76.86
53390;BME280;39288;42.970;1.524;2024-03-06T01:11:48;96241.47;;;2.36;77.57
53390;BME280;39288;42.970;1.524;2024-03-06T01:12:48;96236.50;;;2.40;77.18
53390;BME280;39288;42.970;1.524;2024-03-06T01:13:49;96237.47;;;2.34;77.56
53390;BME280;39288;42.970;1.524;2024-03-06T01:14:49;96231.34;;;2.16;78.47
53390;BME280;39288;42.970;1.524;2024-03-06T01:15:49;96225.78;;;2.30;78.15
53390;BME280;39288;42.970;1.524;2024-03-06T01:16:50;96230.16;;;2.24;79.21
53390;BME280;39288;42.970;1.524;2024-03-06T01:17:50;96228.53;;;2.35;78.71
53390;BME280;39288;42.970;1.524;2024-03-06T01:18:50;96223.84;;;2.37;77.58
53390;BME280;39288;42.970;1.524;2024-03-06T01:19:51;96230.41;;;2.22;78.20
53390;BME280;39288;42.970;1.524;2024-03-06T01:20:51;96220.84;;;1.93;79.69
53390;BME280;39288;42.970;1.524;2024-03-06T01:21:52;96229.66;;;1.87;80.73
53390;BME280;39288;42.970;1.524;2024-03-06T01:22:52;96230.91;;;1.96;80.19
53390;BME280;39288;42.970;1.524;2024-03-06T01:23:53;96221.53;;;2.00;80.14
53390;BME280;39288;42.970;1.524;2024-03-06T01:24:53;96232.00;;;2.23;79.17
53390;BME280;39288;42.970;1.524;2024-03-06T01:25:53;96228.28;;;2.08;79.17
53390;BME280;39288;42.970;1.524;2024-03-06T01:26:54;96226.66;;;2.18;79.28
53390;BME280;39288;42.970;1.524;2024-03-06T01:27:55;96229.56;;;2.34;78.29
53390;BME280;39288;42.970;1.524;2024-03-06T01:28:55;96226.38;;;2.32;78.31
53390;BME280;39288;42.970;1.524;2024-03-06T01:29:56;96225.34;;;2.33;79.34
53390;BME280;39288;42.970;1.524;2024-03-06T01:30:56;96223.16;;;2.30;79.41
53390;BME280;39288;42.970;1.524;2024-03-06T01:31:59;96210.88;;;2.18;79.37
53390;BME280;39288;42.970;1.524;2024-03-06T01:32:59;96216.03;;;2.13;79.21
53390;BME280;39288;42.970;1.524;2024-03-06T01:33:59;96215.25;;;2.01;79.55
53390;BME280;39288;42.970;1.524;2024-03-06T01:35:00;96213.09;;;1.98;79.88
53390;BME280;39288;42.970;1.524;2024-03-06T01:36:00;96210.81;;;1.90;80.41
53390;BME280;39288;42.970;1.524;2024-03-06T01:37:01;96217.22;;;1.82;80.49
53390;BME280;39288;42.970;1.524;2024-03-06T01:38:01;96203.41;;;1.75;81.33
53390;BME280;39288;42.970;1.524;2024-03-06T01:39:02;96208.31;;;1.72;82.39
53390;BME280;39288;42.970;1.524;2024-03-06T01:40:03;96213.22;;;1.80;82.33
53390;BME280;39288;42.970;1.524;2024-03-06T01:41:04;96209.69;;;1.86;81.98
53390;BME280;39288;42.970;1.524;2024-03-06T01:42:05;96202.81;;;1.85;81.89
53390;BME280;39288;42.970;1.524;2024-03-06T01:43:05;96198.59;;;1.84;81.50
53390;BME280;39288;42.970;1.524;2024-03-06T01:44:06;96189.34;;;1.93;80.88
53390;BME280;39288;42.970;1.524;2024-03-06T01:45:07;96204.50;;;2.03;80.28
53390;BME280;39288;42.970;1.524;2024-03-06T01:46:07;96190.59;;;1.91;80.80
53390;BME280;39288;42.970;1.524;2024-03-06T01:47:08;96185.25;;;1.85;80.23
53390;BME280;39288;42.970;1.524;2024-03-06T01:48:08;96192.06;;;1.98;79.53
53390;BME280;39288;42.970;1.524;2024-03-06T01:49:09;96202.09;;;2.01;80.15
53390;BME280;39288;42.970;1.524;2024-03-06T01:50:10;96201.00;;;1.97;79.64
53390;BME280;39288;42.970;1.524;2024-03-06T01:51:10;96182.88;;;2.12;78.74
53390;BME280;39288;42.970;1.524;2024-03-06T01:52:13;96185.53;;;2.12;78.52
53390;BME280;39288;42.970;1.524;2024-03-06T01:53:16;96189.75;;;2.13;78.72
53390;BME280;39288;42.970;1.524;2024-03-06T01:54:18;96184.50;;;2.13;79.03
53390;BME280;39288;42.970;1.524;2024-03-06T01:55:19;96192.81;;;2.22;78.89
53390;BME280;39288;42.970;1.524;2024-03-06T01:56:20;96185.88;;;2.04;79.73
53390;BME280;39288;42.970;1.524;2024-03-06T01:57:20;96192.88;;;1.99;80.04
53390;BME280;39288;42.970;1.524;2024-03-06T01:58:21;96187.97;;;1.91;79.73
53390;BME280;39288;42.970;1.524;2024-03-06T01:59:24;96186.13;;;1.91;79.98
53390;BME280;39288;42.970;1.524;2024-03-06T02:00:26;96187.84;;;2.09;78.84
53390;BME280;39288;42.970;1.524;2024-03-06T02:01:26;96183.84;;;2.06;78.67
53390;BME280;39288;42.970;1.524;2024-03-06T02:02:27;96185.25;;;1.74;80.92
53390;BME280;39288;42.970;1.524;2024-03-06T02:03:28;96177.00;;;1.82;79.95
53390;BME280;39288;42.970;1.524;2024-03-06T02:04:29;96179.03;;;2.03;79.07
53390;BME280;39288;42.970;1.524;2024-03-06T02:05:32;96177.63;;;2.12;79.26
53390;BME280;39288;42.970;1.524;2024-03-06T02:06:33;96172.53;;;1.94;79.76
53390;BME280;39288;42.970;1.524;2024-03-06T02:07:33;96183.63;;;1.96;80.37
53390;BME280;39288;42.970;1.524;2024-03-06T02:08:34;96174.22;;;2.00;79.86
53390;BME280;39288;42.970;1.524;2024-03-06T02:09:35;96174.22;;;2.00;79.39
53390;BME280;39288;42.970;1.524;2024-03-06T02:10:35;96174.59;;;2.04;79.34
53390;BME280;39288;42.970;1.524;2024-03-06T02:11:36;96182.28;;;1.82;80.69
53390;BME280;39288;42.970;1.524;2024-03-06T02:12:37;96181.38;;;1.65;81.23
53390;BME280;39288;42.970;1.524;2024-03-06T02:13:39;96172.56;;;1.71;80.51
53390;BME280;39288;42.970;1.524;2024-03-06T02:14:39;96178.84;;;1.81;80.21
53390;BME280;39288;42.970;1.524;2024-03-06T02:15:40;96182.47;;;1.92;79.61
53390;BME280;39288;42.970;1.524;2024-03-06T02:16:40;96181.59;;;1.75;79.99
53390;BME280;39288;42.970;1.524;2024-03-06T02:17:41;96173.50;;;1.65;80.31
53390;BME280;39288;42.970;1.524;2024-03-06T02:18:54;96172.25;;;1.56;81.06
53390;BME280;39288;42.970;1.524;2024-03-06T02:19:55;96174.66;;;1.57;81.12
53390;BME280;39288;42.970;1.524;2024-03-06T02:20:56;96169.28;;;1.64;80.96
53390;BME280;39288;42.970;1.524;2024-03-06T02:21:56;96171.91;;;1.75;80.23
53390;BME280;39288;42.970;1.524;2024-03-06T02:22:56;96175.47;;;1.69;80.84
53390;BME280;39288;42.970;1.524;2024-03-06T02:23:57;96175.41;;;1.81;80.13
53390;BME280;39288;42.970;1.524;2024-03-06T02:24:58;96170.50;;;1.84;79.92
53390;BME280;39288;42.970;1.524;2024-03-06T02:25:59;96173.16;;;1.73;80.60
53390;BME280;39288;42.970;1.524;2024-03-06T02:26:59;96171.09;;;1.63;80.76
53390;BME280;39288;42.970;1.524;2024-03-06T02:27:59;96158.91;;;1.34;81.68
53390;BME280;39288;42.970;1.524;2024-03-06T02:29:00;96162.13;;;1.36;81.84
53390;BME280;39288;42.970;1.524;2024-03-06T02:30:00;96161.66;;;1.39;81.88
53390;BME280;39288;42.970;1.524;2024-03-06T02:31:00;96160.28;;;1.48;81.84
53390;BME280;39288;42.970;1.524;2024-03-06T02:32:02;96154.47;;;1.58;81.02
53390;BME280;39288;42.970;1.524;2024-03-06T02:33:05;96159.28;;;1.49;81.19
53390;BME280;39288;42.970;1.524;2024-03-06T02:34:09;96154.69;;;1.44;81.49
53390;BME280;39288;42.970;1.524;2024-03-06T02:35:10;96158.22;;;1.62;80.18
53390;BME280;39288;42.970;1.524;2024-03-06T02:36:11;96154.69;;;1.68;79.60
53390;BME280;39288;42.970;1.524;2024-03-06T02:37:11;96155.22;;;1.70;79.73
53390;BME280;39288;42.970;1.524;2024-03-06T02:38:12;96155.94;;;1.65;79.64
53390;BME280;39288;42.970;1.524;2024-03-06T02:39:12;96152.94;;;1.73;79.39
53390;BME280;39288;42.970;1.524;2024-03-06T02:40:13;96150.91;;;1.75;79.43
53390;BME280;39288;42.970;1.524;2024-03-06T02:41:13;96152.88;;;1.57;80.59
53390;BME280;39288;42.970;1.524;2024-03-06T02:42:16;96141.78;;;1.66;79.37
53390;BME280;39288;42.970;1.524;2024-03-06T02:43:17;96148.28;;;1.64;79.16
53390;BME280;39288;42.970;1.524;2024-03-06T02:44:17;96147.03;;;1.55;80.27
53390;BME280;39288;42.970;1.524;2024-03-06T02:45:18;96146.00;;;1.56;81.00
53390;BME280;39288;42.970;1.524;2024-03-06T02:46:18;96133.69;;;1.44;81.26
53390;BME280;39288;42.970;1.524;2024-03-06T02:47:19;96136.66;;;1.48;80.94
53390;BME280;39288;42.970;1.524;2024-03-06T02:48:19;96130.03;;;1.45;80.65
53390;BME280;39288;42.970;1.524;2024-03-06T02:49:20;96129.91;;;1.52;80.54
53390;BME280;39288;42.970;1.524;2024-03-06T02:50:20;96119.97;;;1.66;79.34
53390;BME280;39288;42.970;1.524;2024-03-06T02:51:21;96130.34;;;1.61;79.73
53390;BME280;39288;42.970;1.524;2024-03-06T02:52:22;96126.50;;;1.52;80.34
53390;BME280;39288;42.970;1.524;2024-03-06T02:53:22;96130.03;;;1.57;80.06
53390;BME280;39288;42.970;1.524;2024-03-06T02:54:23;96131.63;;;1.58;79.90
53390;BME280;39288;42.970;1.524;2024-03-06T02:55:25;96118.41;;;1.41;80.70
53390;BME280;39288;42.970;1.524;2024-03-06T02:56:25;96120.94;;;1.36;81.54
53390;BME280;39288;42.970;1.524;2024-03-06T02:57:29;96107.69;;;1.31;81.24
53390;BME280;39288;42.970;1.524;2024-03-06T02:58:29;96109.06;;;1.45;81.19
53390;BME280;39288;42.970;1.524;2024-03-06T02:59:31;96117.59;;;1.53;81.08
53390;BME280;39288;42.970;1.524;2024-03-06T03:00:32;96113.03;;;1.60;80.45
53390;BME280;39288;42.970;1.524;2024-03-06T03:01:32;96112.47;;;1.58;80.71
53390;BME280;39288;42.970;1.524;2024-03-06T03:02:33;96115.22;;;1.39;81.31
53390;BME280;39288;42.970;1.524;2024-03-06T03:03:33;96108.59;;;1.48;80.49
53390;BME280;39288;42.970;1.524;2024-03-06T03:04:33;96115.97;;;1.75;79.00
53390;BME280;39288;42.970;1.524;2024-03-06T03:05:34;96106.41;;;1.69;79.50
53390;BME280;39288;42.970;1.524;2024-03-06T03:06:35;96104.44;;;1.76;78.96
53390;BME280;39288;42.970;1.524;2024-03-06T03:07:36;96110.78;;;1.80;78.80
53390;BME280;39288;42.970;1.524;2024-03-06T03:08:37;96103.34;;;1.48;80.25
53390;BME280;39288;42.970;1.524;2024-03-06T03:09:37;96115.81;;;1.30;81.59
53390;BME280;39288;42.970;1.524;2024-03-06T03:10:39;96115.56;;;1.43;80.28
53390;BME280;39288;42.970;1.524;2024-03-06T03:11:39;96113.84;;;1.48;80.20
53390;BME280;39288;42.970;1.524;2024-03-06T03:12:40;96115.53;;;1.55;79.70
53390;BME280;39288;42.970;1.524;2024-03-06T03:13:40;96106.72;;;1.61;78.99
53390;BME280;39288;42.970;1.524;2024-03-06T03:14:40;96107.53;;;1.61;78.55
53390;BME280;39288;42.970;1.524;2024-03-06T03:15:41;96123.28;;;1.61;78.98
53390;BME280;39288;42.970;1.524;2024-03-06T03:16:42;96120.69;;;1.50;79.59
53390;BME280;39288;42.970;1.524;2024-03-06T03:17:43;96112.25;;;1.24;80.20
53390;BME280;39288;42.970;1.524;2024-03-06T03:18:43;96122.75;;;1.24;80.25
53390;BME280;39288;42.970;1.524;2024-03-06T03:19:44;96114.53;;;1.21;81.10
53390;BME280;39288;42.970;1.524;2024-03-06T03:20:44;96119.31;;;1.12;80.93
53390;BME280;39288;42.970;1.524;2024-03-06T03:21:45;96114.22;;;1.05;82.06
53390;BME280;39288;42.970;1.524;2024-03-06T03:22:45;96114.22;;;1.17;81.25
53390;BME280;39288;42.970;1.524;2024-03-06T03:23:45;96111.91;;;1.21;81.44
53390;BME280;39288;42.970;1.524;2024-03-06T03:24:46;96110.34;;;1.20;80.63
53390;BME280;39288;42.970;1.524;2024-03-06T03:25:50;96116.72;;;1.12;81.02
53390;BME280;39288;42.970;1.524;2024-03-06T03:26:54;96119.81;;;1.09;81.68
53390;BME280;39288;42.970;1.524;2024-03-06T03:27:54;96117.19;;;1.09;81.69
53390;BME280;39288;42.970;1.524;2024-03-06T03:28:54;96116.59;;;1.07;82.14
53390;BME280;39288;42.970;1.524;2024-03-06T03:29:55;96127.31;;;0.94;81.88
53390;BME280;39288;42.970;1.524;2024-03-06T03:30:56;96123.84;;;0.70;83.63
53390;BME280;39288;42.970;1.524;2024-03-06T03:31:56;96120.94;;;0.36;85.09
53390;BME280;39288;42.970;1.524;2024-03-06T03:32:57;96122.97;;;0.34;86.57
53390;BME280;39288;42.970;1.524;2024-03-06T03:33:57;96119.16;;;0.49;86.42
53390;BME280;39288;42.970;1.524;2024-03-06T03:34:58;96111.75;;;0.57;85.76
53390;BME280;39288;42.970;1.524;2024-03-06T03:35:58;96118.59;;;0.58;84.94
53390;BME280;39288;42.970;1.524;2024-03-06T03:36:58;96119.25;;;0.54;85.12
53390;BME280;39288;42.970;1.524;2024-03-06T03:37:59;96116.28;;;0.50;85.34
53390;BME280;39288;42.970;1.524;2024-03-06T03:38:59;96117.00;;;0.57;84.95
53390;BME280;39288;42.970;1.524;2024-03-06T03:40:00;96105.81;;;0.50;84.83
53390;BME280;39288;42.970;1.524;2024-03-06T03:41:00;96116.28;;;0.50;85.44
53390;BME280;39288;42.970;1.524;2024-03-06T03:42:01;96107.28;;;0.46;85.63
53390;BME280;39288;42.970;1.524;2024-03-06T03:43:01;96114.94;;;0.48;85.56
53390;BME280;39288;42.970;1.524;2024-03-06T03:44:06;96111.50;;;0.47;85.68
53390;BME280;39288;42.970;1.524;2024-03-06T03:45:07;96107.41;;;0.51;86.11
53390;BME280;39288;42.970;1.524;2024-03-06T03:46:08;96109.72;;;0.59;84.79
53390;BME280;39288;42.970;1.524;2024-03-06T03:47:09;96108.22;;;0.63;85.05
53390;BME280;39288;42.970;1.524;2024-03-06T03:48:10;96107.09;;;0.71;85.17
53390;BME280;39288;42.970;1.524;2024-03-06T03:49:11;96109.75;;;0.83;84.05
53390;BME280;39288;42.970;1.524;2024-03-06T03:50:11;96100.41;;;0.87;83.66
53390;BME280;39288;42.970;1.524;2024-03-06T03:51:13;96105.75;;;0.92;82.92
53390;BME280;39288;42.970;1.524;2024-03-06T03:52:14;96105.66;;;0.87;82.64
53390;BME280;39288;42.970;1.524;2024-03-06T03:53:15;96107.34;;;0.81;83.15
53390;BME280;39288;42.970;1.524;2024-03-06T03:54:16;96104.97;;;0.80;83.72
53390;BME280;39288;42.970;1.524;2024-03-06T03:55:16;96111.34;;;0.84;83.78
53390;BME280;39288;42.970;1.524;2024-03-06T03:56:16;96111.69;;;0.76;84.37
53390;BME280;39288;42.970;1.524;2024-03-06T03:57:17;96105.28;;;0.71;85.28
53390;BME280;39288;42.970;1.524;2024-03-06T03:58:17;96105.75;;;0.92;83.93
53390;BME280;39288;42.970;1.524;2024-03-06T03:59:18;96116.25;;;1.03;83.48
53390;BME280;39288;42.970;1.524;2024-03-06T04:00:19;96108.72;;;0.95;83.30
53390;BME280;39288;42.970;1.524;2024-03-06T04:01:19;96115.13;;;0.99;83.57
53390;BME280;39288;42.970;1.524;2024-03-06T04:02:19;96115.22;;;1.04;83.05
53390;BME280;39288;42.970;1.524;2024-03-06T04:03:20;96121.63;;;1.08;82.72
53390;BME280;39288;42.970;1.524;2024-03-06T04:04:20;96109.19;;;1.16;82.70
53390;BME280;39288;42.970;1.524;2024-03-06T04:05:23;96120.03;;;1.19;81.71
53390;BME280;39288;42.970;1.524;2024-03-06T04:06:24;96116.81;;;0.94;82.74
53390;BME280;39288;42.970;1.524;2024-03-06T04:07:24;96121.13;;;1.00;83.24
53390;BME280;39288;42.970;1.524;2024-03-06T04:08:26;96121.63;;;0.97;82.98
53390;BME280;39288;42.970;1.524;2024-03-06T04:09:26;96120.91;;;1.01;82.65
53390;BME280;39288;42.970;1.524;2024-03-06T04:10:27;96108.38;;;0.92;82.86
53390;BME280;39288;42.970;1.524;2024-03-06T04:11:27;96119.78;;;0.86;83.46
53390;BME280;39288;42.970;1.524;2024-03-06T04:12:28;96123.44;;;0.85;84.36
53390;BME280;39288;42.970;1.524;2024-03-06T04:13:28;96114.78;;;0.96;82.72
53390;BME280;39288;42.970;1.524;2024-03-06T04:14:29;96117.63;;;0.94;83.81
53390;BME280;39288;42.970;1.524;2024-03-06T04:15:30;96113.28;;;1.00;82.16
53390;BME280;39288;42.970;1.524;2024-03-06T04:16:31;96123.44;;;1.08;82.99
53390;BME280;39288;42.970;1.524;2024-03-06T04:17:31;96123.09;;;1.04;81.80
53390;BME280;39288;42.970;1.524;2024-03-06T04:18:32;96128.56;;;1.03;82.26
53390;BME280;39288;42.970;1.524;2024-03-06T04:19:35;96138.59;;;0.94;83.24
53390;BME280;39288;42.970;1.524;2024-03-06T04:20:36;96133.91;;;0.85;83.81
53390;BME280;39288;42.970;1.524;2024-03-06T04:21:43;96132.56;;;0.94;82.57
53390;BME280;39288;42.970;1.524;2024-03-06T04:22:44;96140.22;;;1.07;82.58
53390;BME280;39288;42.970;1.524;2024-03-06T04:23:46;96132.19;;;0.90;83.50
53390;BME280;39288;42.970;1.524;2024-03-06T04:24:46;96144.53;;;1.01;82.57
53390;BME280;39288;42.970;1.524;2024-03-06T04:25:47;96135.75;;;1.07;83.14
53390;BME280;39288;42.970;1.524;2024-03-06T04:26:47;96135.53;;;1.09;82.27
53390;BME280;39288;42.970;1.524;2024-03-06T04:27:48;96124.47;;;1.07;82.04
53390;BME280;39288;42.970;1.524;2024-03-06T04:28:48;96135.06;;;1.24;81.56
53390;BME280;39288;42.970;1.524;2024-03-06T04:29:48;96135.78;;;1.19;81.58
53390;BME280;39288;42.970;1.524;2024-03-06T04:30:49;96133.13;;;0.84;81.92
53390;BME280;39288;42.970;1.524;2024-03-06T04:31:49;96139.28;;;0.78;83.74
53390;BME280;39288;42.970;1.524;2024-03-06T04:32:50;96128.81;;;0.90;83.26
53390;BME280;39288;42.970;1.524;2024-03-06T04:33:50;96138.00;;;0.81;83.83
53390;BME280;39288;42.970;1.524;2024-03-06T04:34:51;96130.03;;;0.76;84.64
53390;BME280;39288;42.970;1.524;2024-03-06T04:35:51;96123.56;;;0.90;83.41
53390;BME280;39288;42.970;1.524;2024-03-06T04:36:52;96137.22;;;0.92;83.29
53390;BME280;39288;42.970;1.524;2024-03-06T04:37:52;96131.28;;;0.85;83.81
53390;BME280;39288;42.970;1.524;2024-03-06T04:38:53;96129.25;;;0.87;83.32
53390;BME280;39288;42.970;1.524;2024-03-06T04:39:53;96126.19;;;0.90;83.28
53390;BME280;39288;42.970;1.524;2024-03-06T04:40:54;96130.75;;;1.06;82.28
53390;BME280;39288;42.970;1.524;2024-03-06T04:41:54;96129.72;;;0.95;83.02
53390;BME280;39288;42.970;1.524;2024-03-06T04:42:54;96133.13;;;0.96;82.69
53390;BME280;39288;42.970;1.524;2024-03-06T04:43:55;96135.97;;;0.94;82.85
53390;BME280;39288;42.970;1.524;2024-03-06T04:44:58;96131.03;;;0.74;83.33
53390;BME280;39288;42.970;1.524;2024-03-06T04:45:58;96128.09;;;0.41;85.20
53390;BME280;39288;42.970;1.524;2024-03-06T04:46:59;96117.28;;;0.38;85.73
53390;BME280;39288;42.970;1.524;2024-03-06T04:47:59;96126.06;;;0.43;86.07
53390;BME280;39288;42.970;1.524;2024-03-06T04:49:00;96126.66;;;0.45;86.44
53390;BME280;39288;42.970;1.524;2024-03-06T04:50:00;96128.38;;;0.51;85.86
53390;BME280;39288;42.970;1.524;2024-03-06T04:51:00;96115.59;;;0.43;85.87
53390;BME280;39288;42.970;1.524;2024-03-06T04:52:01;96120.50;;;0.51;85.94
53390;BME280;39288;42.970;1.524;2024-03-06T04:53:03;96129.06;;;0.47;86.02
53390;BME280;39288;42.970;1.524;2024-03-06T04:54:03;96118.00;;;0.45;86.01
53390;BME280;39288;42.970;1.524;2024-03-06T04:55:05;96123.94;;;0.52;86.23
53390;BME280;39288;42.970;1.524;2024-03-06T04:56:06;96108.13;;;0.58;84.96
53390;BME280;39288;42.970;1.524;2024-03-06T04:57:07;96117.59;;;0.83;84.67
53390;BME280;39288;42.970;1.524;2024-03-06T04:58:08;96121.25;;;0.82;83.77
53390;BME280;39288;42.970;1.524;2024-03-06T04:59:08;96123.31;;;0.80;83.93
53390;BME280;39288;42.970;1.524;2024-03-06T05:00:10;96118.63;;;0.82;84.36
53390;BME280;39288;42.970;1.524;2024-03-06T05:01:13;96119.19;;;0.84;84.21
53390;BME280;39288;42.970;1.524;2024-03-06T05:02:14;96120.31;;;0.64;84.73
53390;BME280;39288;42.970;1.524;2024-03-06T05:03:14;96114.34;;;0.46;85.99
53390;BME280;39288;42.970;1.524;2024-03-06T05:04:15;96115.59;;;0.43;86.24
53390;BME280;39288;42.970;1.524;2024-03-06T05:05:15;96115.41;;;0.56;86.11
53390;BME280;39288;42.970;1.524;2024-03-06T05:06:16;96114.50;;;0.62;85.15
53390;BME280;39288;42.970;1.524;2024-03-06T05:07:16;96107.22;;;0.64;84.60
53390;BME280;39288;42.970;1.524;2024-03-06T05:08:17;96107.91;;;0.71;83.55
53390;BME280;39288;42.970;1.524;2024-03-06T05:09:17;96105.69;;;0.45;84.72
53390;BME280;39288;42.970;1.524;2024-03-06T05:10:18;96108.28;;;0.33;85.83
53390;BME280;39288;42.970;1.524;2024-03-06T05:11:18;96112.75;;;0.45;85.05
53390;BME280;39288;42.970;1.524;2024-03-06T05:12:18;96111.03;;;0.50;85.33
53390;BME280;39288;42.970;1.524;2024-03-06T05:13:19;96111.28;;;0.49;84.00
53390;BME280;39288;42.970;1.524;2024-03-06T05:14:19;96113.44;;;0.52;83.91
53390;BME280;39288;42.970;1.524;2024-03-06T05:15:20;96112.97;;;0.43;84.58
53390;BME280;39288;42.970;1.524;2024-03-06T05:16:20;96108.50;;;0.32;86.11
53390;BME280;39288;42.970;1.524;2024-03-06T05:17:23;96120.72;;;0.38;86.24
53390;BME280;39288;42.970;1.524;2024-03-06T05:18:23;96110.03;;;0.40;85.70
53390;BME280;39288;42.970;1.524;2024-03-06T05:19:24;96116.75;;;0.47;85.61
53390;BME280;39288;42.970;1.524;2024-03-06T05:20:31;96105.72;;;0.57;84.73
53390;BME280;39288;42.970;1.524;2024-03-06T05:21:32;96111.41;;;0.54;85.69
53390;BME280;39288;42.970;1.524;2024-03-06T05:22:33;96103.66;;;0.47;85.61
53390;BME280;39288;42.970;1.524;2024-03-06T05:23:34;96109.81;;;0.53;85.03
53390;BME280;39288;42.970;1.524;2024-03-06T05:24:34;96110.03;;;0.51;84.95
53390;BME280;39288;42.970;1.524;2024-03-06T05:25:35;96113.22;;;0.53;84.74
53390;BME280;39288;42.970;1.524;2024-03-06T05:26:35;96115.91;;;0.35;85.10